Time;durP1;ratioP1;P1;durP2;ratioP2;P2;SDS_P1;SDS_P2;PMS_P1;PMS_P2;Temp;Humidity;BMP_temperature;BMP_pressure;BME280_temperature;BME280_humidity;BME280_pressure;Samples;Min_cycle;Max_cycle;Signal;HPM_P1;HPM_P2
2023/07/30 07:51:22;;;;;;;1.70;1.30;;;;;;;22.90;91.27;98579.76;263730;1306;545946;-85
2023/07/30 07:57:23;;;;;;;2.80;1.30;;;;;;;22.91;90.20;98570.80;270270;1267;22431;-86
2023/07/30 08:03:27;;;;;;;2.70;1.40;;;;;;;22.91;89.74;98564.66;271396;1279;448249;-85
2023/07/30 08:09:30;;;;;;;1.80;1.60;;;;;;;22.98;89.17;98569.41;271737;1267;22284;-85
2023/07/30 08:15:33;;;;;;;2.30;1.40;;;;;;;23.13;88.65;98574.30;270860;1278;22605;-83
2023/07/30 08:21:34;;;;;;;1.90;1.20;;;;;;;23.17;88.24;98579.71;269810;1278;22525;-86
2023/07/30 08:28:17;;;;;;;2.90;1.30;;;;;;;23.21;87.79;98576.88;271722;1278;22228;-85
2023/07/30 08:35:06;;;;;;;1.90;1.30;;;;;;;23.38;86.77;98572.85;271690;1276;22189;-85
2023/07/30 08:41:08;;;;;;;2.10;1.10;;;;;;;23.52;85.41;98574.73;271369;1278;22436;-85
2023/07/30 08:47:14;;;;;;;2.40;1.20;;;;;;;23.58;85.56;98577.72;271665;1278;23454;-85
2023/07/30 08:53:19;;;;;;;3.00;1.40;;;;;;;23.73;85.97;98582.38;271176;1278;22415;-84
2023/07/30 08:59:21;;;;;;;1.80;1.20;;;;;;;23.66;85.06;98592.53;271112;1265;22546;-86
2023/07/30 09:05:43;;;;;;;2.60;1.20;;;;;;;23.71;84.70;98594.67;271959;1284;22287;-84
2023/07/30 09:12:12;;;;;;;2.30;1.50;;;;;;;23.75;83.24;98595.44;271814;1278;22213;-86
2023/07/30 09:18:18;;;;;;;3.70;1.50;;;;;;;23.88;83.35;98592.80;273152;1270;22562;-85
2023/07/30 09:24:23;;;;;;;2.40;1.30;;;;;;;23.92;82.60;98589.88;273430;1269;22252;-84
2023/07/30 09:30:48;;;;;;;2.70;1.40;;;;;;;24.04;82.45;98593.86;272466;1269;23913;-85
2023/07/30 09:37:30;;;;;;;1.30;1.10;;;;;;;24.25;81.89;98590.21;273523;1267;22212;-83
2023/07/30 09:43:32;;;;;;;1.90;1.40;;;;;;;24.41;81.36;98582.92;273155;1257;22597;-83
2023/07/30 09:49:34;;;;;;;2.10;1.30;;;;;;;24.48;81.19;98576.66;271883;1251;22505;-83
2023/07/30 09:55:36;;;;;;;1.70;1.20;;;;;;;24.72;81.50;98574.80;272078;1267;23151;-85
2023/07/30 10:02:03;;;;;;;1.70;1.30;;;;;;;25.04;80.21;98572.41;271352;1267;22553;-83
2023/07/30 10:08:35;;;;;;;2.90;1.40;;;;;;;25.30;78.82;98567.38;272847;1258;22550;-81
2023/07/30 10:14:37;;;;;;;1.30;1.20;;;;;;;25.64;78.32;98571.67;273202;1267;23061;-83
2023/07/30 10:20:39;;;;;;;1.70;1.30;;;;;;;25.93;75.77;98572.42;273795;1256;23311;-83
2023/07/30 10:26:45;;;;;;;2.90;1.40;;;;;;;26.07;75.36;98565.65;273306;1267;22263;-84
2023/07/30 10:33:37;;;;;;;1.80;1.30;;;;;;;26.05;74.40;98569.54;273640;1267;22958;-82
2023/07/30 10:40:07;;;;;;;1.20;1.10;;;;;;;25.98;73.71;98569.25;273901;1269;22185;-85
2023/07/30 10:46:34;;;;;;;1.90;1.10;;;;;;;25.81;72.88;98565.60;273651;1257;22466;-84
2023/07/30 10:52:51;;;;;;;1.80;1.20;;;;;;;25.58;72.33;98558.77;274110;1268;23292;-84
2023/07/30 10:58:53;;;;;;;1.30;1.20;;;;;;;25.35;72.38;98559.21;273379;1256;22398;-84
2023/07/30 11:04:55;;;;;;;4.60;1.00;;;;;;;25.14;71.73;98551.98;273730;1264;22383;-84
2023/07/30 11:11:08;;;;;;;3.50;1.50;;;;;;;25.03;71.38;98553.86;273874;1268;22218;-83
2023/07/30 11:17:38;;;;;;;1.70;1.30;;;;;;;25.03;70.12;98555.64;273743;1253;22198;-83
2023/07/30 11:23:41;;;;;;;1.60;1.10;;;;;;;25.04;69.77;98551.44;273310;1258;23020;-84
2023/07/30 11:29:53;;;;;;;4.30;1.40;;;;;;;24.92;70.23;98547.05;272604;1258;22538;-82
2023/07/30 11:35:56;;;;;;;1.40;1.20;;;;;;;24.85;71.45;98544.92;273697;1260;22210;-85
2023/07/30 11:41:58;;;;;;;4.30;1.20;;;;;;;24.75;71.33;98543.15;273893;1267;22755;-84
2023/07/30 11:48:14;;;;;;;2.10;1.20;;;;;;;24.46;71.10;98545.98;273596;1267;22415;-85
2023/07/30 11:54:40;;;;;;;1.40;1.00;;;;;;;24.33;71.18;98540.19;273012;1261;22185;-82
2023/07/30 12:00:54;;;;;;;3.50;1.20;;;;;;;24.34;71.20;98548.48;273415;1267;22190;-84
2023/07/30 12:07:23;;;;;;;1.70;1.20;;;;;;;24.28;71.60;98545.58;273785;1271;22193;-84
2023/07/30 12:13:50;;;;;;;1.50;1.30;;;;;;;24.18;71.30;98552.42;273953;1270;22239;-85
2023/07/30 12:20:31;;;;;;;2.40;1.30;;;;;;;24.07;71.20;98547.30;273802;1269;22744;-85
2023/07/30 12:26:53;;;;;;;2.10;1.20;;;;;;;24.01;71.37;98542.86;273606;1267;22281;-84
2023/07/30 12:33:34;;;;;;;2.10;1.30;;;;;;;23.98;72.26;98544.88;273973;1255;23051;-84
2023/07/30 12:39:41;;;;;;;1.60;1.10;;;;;;;23.91;71.93;98542.16;273627;1267;22173;-84
2023/07/30 12:46:04;;;;;;;3.70;1.60;;;;;;;23.79;72.06;98535.16;273696;1268;22264;-85
2023/07/30 12:52:17;;;;;;;2.70;1.50;;;;;;;23.68;71.63;98527.41;273516;1267;22299;-85
2023/07/30 12:58:53;;;;;;;2.80;1.40;;;;;;;23.65;72.16;98521.60;273674;1275;22416;-85
2023/07/30 13:05:38;;;;;;;1.80;1.30;;;;;;;23.68;72.47;98526.23;273501;1267;22213;-85
2023/07/30 13:11:49;;;;;;;2.50;1.30;;;;;;;23.69;72.22;98515.23;271076;1267;22612;-86
2023/07/30 13:17:50;;;;;;;1.60;1.40;;;;;;;23.67;71.97;98517.58;270512;1267;22543;-85
2023/07/30 13:23:52;;;;;;;4.90;1.20;;;;;;;23.73;71.81;98519.73;270730;1267;22597;-85
2023/07/30 13:30:23;;;;;;;1.80;1.20;;;;;;;23.74;71.10;98515.89;272257;1253;22421;-86
2023/07/30 13:36:51;;;;;;;3.00;1.40;;;;;;;23.80;70.08;98509.09;272622;1267;22601;-85
2023/07/30 13:43:07;;;;;;;1.40;1.10;;;;;;;23.85;69.62;98505.89;273110;1267;22151;-84
2023/07/30 13:49:29;;;;;;;1.80;1.50;;;;;;;23.83;69.79;98500.80;273586;1267;23779;-84
2023/07/30 13:55:36;;;;;;;1.30;1.10;;;;;;;23.80;70.25;98498.95;274084;1257;23842;-85
2023/07/30 14:01:53;;;;;;;;;;;;;;;23.73;70.20;98501.46;273980;1257;23221;-85
2023/07/30 14:08:22;;;;;;;1.50;1.20;;;;;;;23.64;70.70;98498.26;272107;1267;22565;-84
2023/07/30 14:14:58;;;;;;;2.90;1.60;;;;;;;23.61;71.27;98496.61;272498;1267;22330;-84
2023/07/30 14:21:22;;;;;;;3.10;1.40;;;;;;;23.69;72.05;98498.37;273986;1257;22374;-84
2023/07/30 14:27:25;;;;;;;3.00;1.30;;;;;;;23.76;71.70;98500.86;274138;1263;22245;-85
2023/07/30 14:33:49;;;;;;;2.10;1.60;;;;;;;23.78;71.83;98496.92;273926;1267;22269;-85
2023/07/30 14:40:13;;;;;;;2.10;1.50;;;;;;;23.71;71.87;98492.36;273906;1254;22159;-84
2023/07/30 14:46:17;;;;;;;1.70;1.30;;;;;;;23.71;71.53;98486.97;272854;1267;23314;-84
2023/07/30 14:52:39;;;;;;;3.60;1.30;;;;;;;23.60;71.23;98476.47;273623;1267;22189;-84
2023/07/30 14:58:41;;;;;;;1.40;1.20;;;;;;;23.58;71.74;98470.88;273605;1270;22383;-84
2023/07/30 15:05:03;;;;;;;3.70;1.70;;;;;;;23.51;72.28;98467.84;273834;1267;23440;-84
2023/07/30 15:11:05;;;;;;;4.00;2.20;;;;;;;23.40;72.92;98466.46;273471;1267;22460;-85
2023/07/30 15:17:27;;;;;;;2.10;1.50;;;;;;;23.33;73.29;98463.55;273165;1267;22239;-85
2023/07/30 15:23:51;;;;;;;1.70;1.40;;;;;;;23.36;72.97;98457.27;273088;1268;22459;-85
2023/07/30 15:29:53;;;;;;;3.20;1.40;;;;;;;23.39;73.37;98444.81;274078;1273;23254;-84
2023/07/30 15:35:54;;;;;;;1.90;1.50;;;;;;;23.50;74.10;98437.80;272904;1268;23813;-85
2023/07/30 15:41:58;;;;;;;3.20;1.30;;;;;;;23.64;74.08;98432.47;272526;1267;22408;-85
2023/07/30 15:48:00;;;;;;;2.30;1.50;;;;;;;23.64;72.78;98433.83;273129;1258;22365;-84
2023/07/30 15:54:16;;;;;;;4.20;1.50;;;;;;;23.48;73.13;98437.09;271167;1251;22720;-85
2023/07/30 16:00:42;;;;;;;2.70;1.50;;;;;;;23.32;73.40;98437.92;272222;1260;22540;-85
2023/07/30 16:06:43;;;;;;;4.00;1.20;;;;;;;23.20;73.51;98437.64;273205;1267;22536;-85
2023/07/30 16:13:02;;;;;;;2.20;1.20;;;;;;;23.09;73.36;98445.35;273885;1267;22161;-84
2023/07/30 16:19:24;;;;;;;1.30;1.00;;;;;;;22.94;72.79;98445.27;272942;1267;25507;-84
2023/07/30 16:25:30;;;;;;;2.50;1.20;;;;;;;22.90;73.13;98445.80;272908;1267;22176;-83
2023/07/30 16:31:46;;;;;;;2.20;1.40;;;;;;;22.89;73.15;98450.64;273590;1267;22264;-83
2023/07/30 16:38:05;;;;;;;2.40;1.20;;;;;;;22.82;72.93;98459.10;265824;1267;10001358;-83
2023/07/30 16:44:41;;;;;;;1.70;1.20;;;;;;;22.70;73.12;98463.50;273347;1267;23517;-85
2023/07/30 16:51:27;;;;;;;2.20;1.60;;;;;;;22.66;73.25;98473.89;272607;1258;22061;-83
2023/07/30 16:58:47;;;;;;;1.50;1.20;;;;;;;22.59;73.13;98478.73;273853;1268;22250;-84
2023/07/30 17:04:48;;;;;;;1.80;0.90;;;;;;;22.52;73.05;98486.79;273171;1258;23498;-84
2023/07/30 17:10:50;;;;;;;2.30;1.10;;;;;;;22.44;73.44;98500.66;273289;1258;23390;-85
2023/07/30 17:16:56;;;;;;;3.60;1.90;;;;;;;22.31;73.11;98505.22;273746;1269;23168;-85
2023/07/30 17:23:40;;;;;;;2.50;1.80;;;;;;;22.21;73.08;98509.16;273774;1275;22295;-84
2023/07/30 17:30:09;;;;;;;6.40;1.60;;;;;;;22.13;73.44;98513.89;273414;1262;22893;-84
2023/07/30 17:36:53;;;;;;;1.90;1.50;;;;;;;21.98;74.16;98521.20;273666;1272;22279;-85
2023/07/30 17:43:28;;;;;;;2.70;1.60;;;;;;;21.80;74.61;98531.39;273426;1269;24408;-85
2023/07/30 17:50:10;;;;;;;4.60;2.20;;;;;;;21.65;75.19;98531.98;273517;1269;22238;-85
2023/07/30 17:56:49;;;;;;;3.90;1.90;;;;;;;21.57;75.50;98537.61;273484;1276;22348;-85
2023/07/30 18:02:52;;;;;;;3.40;1.80;;;;;;;21.49;76.02;98541.86;273093;1269;22445;-84
2023/07/30 18:09:16;;;;;;;3.90;2.20;;;;;;;21.36;76.16;98547.79;273295;1260;23082;-85
2023/07/30 18:15:24;;;;;;;3.40;2.10;;;;;;;21.21;76.75;98561.89;272962;1268;22279;-84
2023/07/30 18:21:41;;;;;;;2.90;1.70;;;;;;;21.09;77.02;98568.15;273259;1265;23113;-84
2023/07/30 18:28:24;;;;;;;6.30;2.20;;;;;;;20.98;77.51;98575.23;273188;1269;22268;-84
2023/07/30 18:35:06;;;;;;;4.20;2.10;;;;;;;20.94;77.93;98577.45;273615;1269;22294;-83
2023/07/30 18:41:07;;;;;;;4.20;2.00;;;;;;;20.93;78.18;98578.84;273150;1269;22449;-84
2023/07/30 18:47:18;;;;;;;3.20;2.20;;;;;;;20.91;78.30;98582.71;273681;1269;23316;-84
2023/07/30 18:53:57;;;;;;;3.20;2.20;;;;;;;20.88;79.18;98581.26;273753;1271;23707;-85
2023/07/30 19:00:41;;;;;;;2.60;2.00;;;;;;;20.74;79.78;98583.60;273628;1270;22193;-84
2023/07/30 19:07:04;;;;;;;4.70;2.30;;;;;;;20.59;80.50;98583.39;273592;1264;22176;-84
2023/07/30 19:13:13;;;;;;;5.10;2.10;;;;;;;20.53;81.63;98590.54;273073;1269;23563;-84
2023/07/30 19:19:18;;;;;;;2.90;2.20;;;;;;;20.46;82.51;98598.09;272998;1272;22683;-86
2023/07/30 19:25:29;;;;;;;3.50;1.90;;;;;;;20.26;82.39;98600.15;273356;1272;22199;-84
2023/07/30 19:31:31;;;;;;;5.20;2.60;;;;;;;20.01;82.84;98596.20;272195;1269;22567;-84
2023/07/30 19:38:10;;;;;;;3.20;2.50;;;;;;;19.87;83.41;98589.59;273401;1269;22195;-84
2023/07/30 19:44:56;;;;;;;8.60;2.70;;;;;;;19.78;84.24;98593.27;273362;1269;23408;-84
2023/07/30 19:51:18;;;;;;;4.40;2.80;;;;;;;19.76;85.62;98596.28;272897;1267;22356;-85
2023/07/30 19:58:01;;;;;;;4.20;2.20;;;;;;;19.64;85.29;98587.07;273107;1277;22184;-84
2023/07/30 20:04:54;;;;;;;4.90;2.60;;;;;;;19.61;86.92;98592.55;269133;1269;5626555;-85
2023/07/30 20:10:56;;;;;;;2.60;2.00;;;;;;;19.60;87.18;98598.38;273601;1266;22200;-85
2023/07/30 20:17:38;;;;;;;6.50;2.40;;;;;;;19.56;88.37;98606.75;273134;1269;23706;-85
2023/07/30 20:24:22;;;;;;;3.80;2.30;;;;;;;19.49;89.30;98610.33;273731;1257;22420;-85
2023/07/30 20:30:49;;;;;;;8.50;2.60;;;;;;;19.40;90.56;98617.89;273933;1276;22890;-86
2023/07/30 20:37:14;;;;;;;3.50;2.30;;;;;;;19.28;90.50;98622.92;273644;1270;22192;-85
2023/07/30 20:43:41;;;;;;;3.60;2.50;;;;;;;19.14;90.30;98619.04;273543;1269;22364;-84
2023/07/30 20:49:43;;;;;;;4.30;2.70;;;;;;;19.07;90.77;98622.71;273192;1271;22312;-85
2023/07/30 20:55:47;;;;;;;3.70;2.40;;;;;;;18.99;90.75;98625.96;272859;1269;22420;-85
2023/07/30 21:02:29;;;;;;;4.30;2.30;;;;;;;18.83;91.16;98619.54;273451;1269;23391;-84
2023/07/30 21:08:35;;;;;;;5.30;2.70;;;;;;;18.74;92.09;98622.08;273663;1269;22218;-85
2023/07/30 21:15:19;;;;;;;5.40;2.80;;;;;;;18.69;92.85;98621.80;273763;1269;22337;-85
2023/07/30 21:21:41;;;;;;;4.20;2.70;;;;;;;18.64;93.70;98614.73;271693;1254;22718;-84
2023/07/30 21:27:54;;;;;;;8.20;3.10;;;;;;;18.54;93.64;98616.49;270610;1269;23952;-85
2023/07/30 21:34:16;;;;;;;5.50;2.70;;;;;;;18.52;94.40;98619.42;270315;1269;22649;-84
2023/07/30 21:40:17;;;;;;;6.60;2.90;;;;;;;18.50;95.05;98617.41;271254;1269;25393;-84
2023/07/30 21:46:19;;;;;;;6.40;2.60;;;;;;;18.44;95.70;98616.87;271887;1273;22611;-84
2023/07/30 21:52:42;;;;;;;8.90;2.70;;;;;;;18.36;96.46;98615.05;271913;1269;23792;-85
2023/07/30 21:59:26;;;;;;;5.50;2.80;;;;;;;18.27;96.59;98613.78;272380;1261;22381;-85
2023/07/30 22:05:49;;;;;;;4.20;2.70;;;;;;;18.14;96.49;98617.54;273392;1269;22468;-84
2023/07/30 22:11:51;;;;;;;5.30;3.10;;;;;;;18.05;96.76;98621.08;273158;1269;22622;-85
2023/07/30 22:17:52;;;;;;;4.60;2.60;;;;;;;17.90;96.52;98625.80;272150;1258;22433;-85
2023/07/30 22:24:34;;;;;;;6.50;3.00;;;;;;;17.70;96.59;98623.81;273363;1269;22236;-85
2023/07/30 22:31:40;;;;;;;9.30;3.00;;;;;;;17.56;97.51;98632.71;273103;1269;22476;-85
2023/07/30 22:38:16;;;;;;;4.30;3.50;;;;;;;17.40;97.42;98632.39;273422;1269;23469;-86
2023/07/30 22:44:58;;;;;;;4.90;2.40;;;;;;;17.31;98.54;98623.66;273747;1261;22572;-85
2023/07/30 22:51:00;;;;;;;6.90;3.00;;;;;;;17.29;99.07;98617.38;273716;1269;22425;-85
2023/07/30 22:57:02;;;;;;;6.70;3.00;;;;;;;17.16;99.19;98613.14;273740;1269;22152;-85
2023/07/30 23:03:44;;;;;;;6.30;3.30;;;;;;;17.02;99.54;98606.89;273938;1269;22208;-85
2023/07/30 23:10:24;;;;;;;8.00;3.30;;;;;;;16.88;99.96;98606.55;273174;1269;22386;-84
2023/07/30 23:17:08;;;;;;;3.20;2.90;;;;;;;16.80;100.00;98604.73;273795;1254;22186;-85
2023/07/30 23:23:37;;;;;;;6.20;3.60;;;;;;;16.70;100.00;98611.73;273415;1269;22911;-86
2023/07/30 23:30:10;;;;;;;9.00;3.20;;;;;;;16.63;100.00;98616.11;273514;1269;22394;-84
2023/07/30 23:36:35;;;;;;;6.80;3.20;;;;;;;16.54;100.00;98605.23;273970;1259;23042;-85
2023/07/30 23:42:59;;;;;;;;;;;;;;;16.43;100.00;98612.05;271000;1259;23672;-85
2023/07/30 23:56:23;;;;;;;4.70;3.30;;;;;;;16.20;100.00;98612.46;270724;1267;22631;-85
